Carey — WDC3703 — position and weather

sailwx.info

Track history (hours):
 
Tides and Currents Weather Stations Pressure Air Temp Water Temp Dewpoint Dewpoint Depression Visibility Wind Speed Wind Dir Waves Ship Positions

Carey

Owner: Wilmington Tug, Inc, New Castle, DE. More information available from US FCC via Universal Licensing System and Coast Guard Vessel Documentation Center.

Last reported at 2018-Aug-15 16:54 UTC. Time now 2018-Aug-17 11:40 UTC.
Position N 39°43' W 075°31'.

Length 13 m; draft 2.3 m.

Type: Tug. MMSI: 367012690.

Date/timePositionNaut miles runAvg speedWind from/ knotsBaromVisibWave heightAir tempDewpointWater temp
2018-Aug-15 16:54N 39°43' W 075°31'0 0.0
2018-Aug-14 09:48N 39°43' W 075°31'411.9
2018-Aug-14 09:31N 39°46' W 075°28'3 6.8
2018-Aug-14 09:00N 39°48' W 075°25'0 0.0
2018-Aug-14 08:31N 39°48' W 075°25'0 0.0
2018-Aug-14 08:00N 39°48' W 075°25'1 1.7
2018-Aug-14 07:30N 39°48' W 075°26'1 1.6
2018-Aug-14 07:00N 39°48' W 075°25'2 4.0
2018-Aug-14 06:31N 39°47' W 075°27'3 5.8
2018-Aug-14 06:01N 39°45' W 075°29'2 4.3
2018-Aug-14 05:30N 39°43' W 075°31'  
2018-Aug-10 18:31N 39°43' W 075°31'0 0.0
2018-Aug-10 18:31N 39°43' W 075°31'4 7.7
2018-Aug-10 18:00N 39°39' W 075°33'4 7.9
2018-Aug-10 17:31N 39°36' W 075°34'3 5.2
2018-Aug-10 17:01N 39°34' W 075°31'1 2.9
2018-Aug-10 16:30N 39°35' W 075°29'2 4.0
2018-Aug-10 16:00N 39°34' W 075°31'1 2.7
2018-Aug-10 15:31N 39°33' W 075°33'4 8.7
2018-Aug-10 15:01N 39°37' W 075°35'4 8.7
2018-Aug-10 14:31N 39°41' W 075°31'2 4.4
2018-Aug-10 14:01N 39°43' W 075°31'  
2018-Aug-07 22:55N 39°40' W 075°32'511.1
2018-Aug-07 22:29N 39°35' W 075°34'612.3
2018-Aug-07 22:00N 39°29' W 075°33'612.1
2018-Aug-07 21:30N 39°24' W 075°29'2211.1
2018-Aug-07 19:28N 39°10' W 075°06'9 3.4
2018-Aug-07 16:58N 39°16' W 074°59'0 0.0
2018-Aug-07 16:28N 39°16' W 074°59'3 1.3
2018-Aug-07 14:35N 39°14' W 075°01'0 2.9
2018-Aug-07 14:26N 39°14' W 075°01'1 2.1
2018-Aug-07 13:57N 39°13' W 075°02'2 3.5
2018-Aug-07 13:23N 39°11' W 075°02'2 3.5
2018-Aug-07 12:47N 39°10' W 075°05'2 5.6
2018-Aug-07 12:30N 39°10' W 075°07'16 4.7
2018-Aug-07 09:03N 39°19' W 075°24'0 2.9
2018-Aug-07 09:00N 39°19' W 075°24'1 2.3
2018-Aug-07 08:29N 39°20' W 075°25'2 3.6
2018-Aug-07 08:00N 39°22' W 075°27'2 4.3
2018-Aug-07 07:30N 39°23' W 075°29'2 4.0
2018-Aug-07 07:01N 39°25' W 075°30'3 5.9
2018-Aug-07 06:30N 39°27' W 075°33'3 5.4
2018-Aug-07 06:00N 39°30' W 075°33'3 6.4
2018-Aug-07 05:30N 39°33' W 075°33'4 7.1
2018-Aug-07 05:00N 39°36' W 075°34'3 6.8
2018-Aug-07 04:31N 39°39' W 075°33'4 7.5
2018-Aug-07 04:00N 39°43' W 075°31'0 0.8
2018-Aug-07 03:31N 39°43' W 075°31'0 0.0
2018-Aug-07 03:00N 39°43' W 075°31'0 0.0
2018-Aug-07 02:30N 39°43' W 075°31'0 0.0
2018-Aug-07 02:00N 39°43' W 075°31'0 0.0
2018-Aug-07 01:30N 39°43' W 075°31'0 0.0
2018-Aug-07 01:00N 39°43' W 075°31'0 0.0
2018-Aug-07 00:31N 39°43' W 075°31'0 0.0
2018-Aug-06 12:51N 39°43' W 075°31'0 0.0
2018-Aug-06 02:20N 39°43' W 075°31'1 4.0
2018-Aug-06 02:00N 39°42' W 075°31'4 8.9
2018-Aug-06 01:30N 39°38' W 075°34'4 8.7
2018-Aug-06 01:00N 39°34' W 075°33'3 6.3
2018-Aug-06 00:30N 39°35' W 075°29'1 1.0
2018-Aug-06 00:00N 39°34' W 075°29'3 4.9
2018-Aug-05 23:30N 39°33' W 075°32'2 3.1
2018-Aug-05 22:59N 39°34' W 075°33'4 8.5
2018-Aug-05 22:30N 39°38' W 075°34'5 9.2
2018-Aug-05 22:00N 39°42' W 075°31'  
Track history (hours):
 
Tides and Currents Weather Stations Pressure Air Temp Water Temp Dewpoint Dewpoint Depression Visibility Wind Speed Wind Dir Waves Ship Positions

Carey

Owner: Wilmington Tug, Inc, New Castle, DE. More information available from US FCC via Universal Licensing System and Coast Guard Vessel Documentation Center.

Last reported at 2018-Aug-15 16:54 UTC. Time now 2018-Aug-17 11:40 UTC.
Position N 39°43' W 075°31'.

Length 13 m; draft 2.3 m.

Type: Tug. MMSI: 367012690.

Date/timePositionNaut miles runAvg speedWind from/ knotsBaromVisibWave heightAir tempDewpointWater temp
2018-Aug-15 16:54N 39°43' W 075°31'0 0.0
2018-Aug-14 09:48N 39°43' W 075°31'411.9
2018-Aug-14 09:31N 39°46' W 075°28'3 6.8
2018-Aug-14 09:00N 39°48' W 075°25'0 0.0
2018-Aug-14 08:31N 39°48' W 075°25'0 0.0
2018-Aug-14 08:00N 39°48' W 075°25'1 1.7
2018-Aug-14 07:30N 39°48' W 075°26'1 1.6
2018-Aug-14 07:00N 39°48' W 075°25'2 4.0
2018-Aug-14 06:31N 39°47' W 075°27'3 5.8
2018-Aug-14 06:01N 39°45' W 075°29'2 4.3
2018-Aug-14 05:30N 39°43' W 075°31'  
2018-Aug-10 18:31N 39°43' W 075°31'0 0.0
2018-Aug-10 18:31N 39°43' W 075°31'4 7.7
2018-Aug-10 18:00N 39°39' W 075°33'4 7.9
2018-Aug-10 17:31N 39°36' W 075°34'3 5.2
2018-Aug-10 17:01N 39°34' W 075°31'1 2.9
2018-Aug-10 16:30N 39°35' W 075°29'2 4.0
2018-Aug-10 16:00N 39°34' W 075°31'1 2.7
2018-Aug-10 15:31N 39°33' W 075°33'4 8.7
2018-Aug-10 15:01N 39°37' W 075°35'4 8.7
2018-Aug-10 14:31N 39°41' W 075°31'2 4.4
2018-Aug-10 14:01N 39°43' W 075°31'  
2018-Aug-07 22:55N 39°40' W 075°32'511.1
2018-Aug-07 22:29N 39°35' W 075°34'612.3
2018-Aug-07 22:00N 39°29' W 075°33'612.1
2018-Aug-07 21:30N 39°24' W 075°29'2211.1
2018-Aug-07 19:28N 39°10' W 075°06'9 3.4
2018-Aug-07 16:58N 39°16' W 074°59'0 0.0
2018-Aug-07 16:28N 39°16' W 074°59'3 1.3
2018-Aug-07 14:35N 39°14' W 075°01'0 2.9
2018-Aug-07 14:26N 39°14' W 075°01'1 2.1
2018-Aug-07 13:57N 39°13' W 075°02'2 3.5
2018-Aug-07 13:23N 39°11' W 075°02'2 3.5
2018-Aug-07 12:47N 39°10' W 075°05'2 5.6
2018-Aug-07 12:30N 39°10' W 075°07'16 4.7
2018-Aug-07 09:03N 39°19' W 075°24'0 2.9
2018-Aug-07 09:00N 39°19' W 075°24'1 2.3
2018-Aug-07 08:29N 39°20' W 075°25'2 3.6
2018-Aug-07 08:00N 39°22' W 075°27'2 4.3
2018-Aug-07 07:30N 39°23' W 075°29'2 4.0
2018-Aug-07 07:01N 39°25' W 075°30'3 5.9
2018-Aug-07 06:30N 39°27' W 075°33'3 5.4
2018-Aug-07 06:00N 39°30' W 075°33'3 6.4
2018-Aug-07 05:30N 39°33' W 075°33'4 7.1
2018-Aug-07 05:00N 39°36' W 075°34'3 6.8
2018-Aug-07 04:31N 39°39' W 075°33'4 7.5
2018-Aug-07 04:00N 39°43' W 075°31'0 0.8
2018-Aug-07 03:31N 39°43' W 075°31'0 0.0
2018-Aug-07 03:00N 39°43' W 075°31'0 0.0
2018-Aug-07 02:30N 39°43' W 075°31'0 0.0
2018-Aug-07 02:00N 39°43' W 075°31'0 0.0
2018-Aug-07 01:30N 39°43' W 075°31'0 0.0
2018-Aug-07 01:00N 39°43' W 075°31'0 0.0
2018-Aug-07 00:31N 39°43' W 075°31'0 0.0
2018-Aug-06 12:51N 39°43' W 075°31'0 0.0
2018-Aug-06 02:20N 39°43' W 075°31'1 4.0
2018-Aug-06 02:00N 39°42' W 075°31'4 8.9
2018-Aug-06 01:30N 39°38' W 075°34'4 8.7
2018-Aug-06 01:00N 39°34' W 075°33'3 6.3
2018-Aug-06 00:30N 39°35' W 075°29'1 1.0
2018-Aug-06 00:00N 39°34' W 075°29'3 4.9
2018-Aug-05 23:30N 39°33' W 075°32'2 3.1
2018-Aug-05 22:59N 39°34' W 075°33'4 8.5
2018-Aug-05 22:30N 39°38' W 075°34'5 9.2
2018-Aug-05 22:00N 39°42' W 075°31'  

Dump ship's entire track history